Time;durP1;ratioP1;P1;durP2;ratioP2;P2;SDS_P1;SDS_P2;PMS_P1;PMS_P2;Temp;Humidity;BMP_temperature;BMP_pressure;BME280_temperature;BME280_humidity;BME280_pressure;Samples;Min_cycle;Max_cycle;Signal;HPM_P1;HPM_P2
2023/10/12 00:01:09;;;;;;;;;;;14.50;99.90;;;;;;4961694;28;19910;-71
2023/10/12 00:03:35;;;;;;;;;;;14.40;99.90;;;;;;4964937;28;19917;-71
2023/10/12 00:06:01;;;;;;;;;;;14.30;99.90;;;;;;4962983;28;19937;-70
2023/10/12 00:08:30;;;;;;;;;;;14.30;99.90;;;;;;4962562;28;20758;-71
2023/10/12 00:10:56;;;;;;;;;;;14.30;99.90;;;;;;4962268;28;19988;-70
2023/10/12 00:13:28;;;;;;;;;;;14.30;99.90;;;;;;4964430;28;19917;-71
2023/10/12 00:15:55;;;;;;;;;;;14.30;99.90;;;;;;4960873;28;19910;-70
2023/10/12 00:18:22;;;;;;;;;;;14.30;99.90;;;;;;4962478;28;19918;-70
2023/10/12 00:20:54;;;;;;;;;;;14.30;99.90;;;;;;4967136;28;19992;-71
2023/10/12 00:23:19;;;;;;;;;;;14.20;99.90;;;;;;4957794;28;19953;-70
2023/10/12 00:25:46;;;;;;;;;;;14.20;99.90;;;;;;4965747;28;20258;-70
2023/10/12 00:28:13;;;;;;;;;;;14.20;99.90;;;;;;4964822;28;19919;-70
2023/10/12 00:30:41;;;;;;;;;;;14.30;99.90;;;;;;4966483;28;20522;-71
2023/10/12 00:33:08;;;;;;;;;;;14.30;99.90;;;;;;4969729;28;19916;-70
2023/10/12 00:35:37;;;;;;;;;;;14.30;99.90;;;;;;4961736;28;19920;-71
2023/10/12 00:38:15;;;;;;;;;;;14.40;99.90;;;;;;4965455;28;20431;-70
2023/10/12 00:40:48;;;;;;;;;;;14.30;99.90;;;;;;4965105;28;19918;-70
2023/10/12 00:43:15;;;;;;;;;;;14.20;99.90;;;;;;4967216;28;20293;-70
2023/10/12 00:45:40;;;;;;;;;;;14.10;99.90;;;;;;4964227;28;19930;-71
2023/10/12 00:48:07;;;;;;;;;;;14.10;99.90;;;;;;4963681;28;19911;-70
2023/10/12 00:50:34;;;;;;;;;;;14.00;99.90;;;;;;4961990;28;20358;-70
2023/10/12 00:53:14;;;;;;;;;;;13.90;99.90;;;;;;4963166;28;19942;-71
2023/10/12 00:55:41;;;;;;;;;;;14.00;99.90;;;;;;4962534;28;19914;-70
2023/10/12 00:58:10;;;;;;;;;;;13.90;99.90;;;;;;4963336;28;19914;-71
2023/10/12 01:00:46;;;;;;;;;;;14.00;99.90;;;;;;4964143;28;19914;-70
2023/10/12 01:08:35;;;;;;;;;;;14.00;99.90;;;;;;4963525;28;20277;-70
2023/10/12 01:11:05;;;;;;;;;;;14.00;99.90;;;;;;4958870;28;19925;-71
2023/10/12 01:13:33;;;;;;;;;;;13.90;99.90;;;;;;4965263;28;19910;-71
2023/10/12 01:16:03;;;;;;;;;;;13.90;99.90;;;;;;4964653;28;19911;-70
2023/10/12 01:18:28;;;;;;;;;;;13.90;99.90;;;;;;4958551;28;19914;-70
2023/10/12 01:20:54;;;;;;;;;;;13.90;99.90;;;;;;4963510;28;19921;-70
2023/10/12 01:23:20;;;;;;;;;;;13.80;99.90;;;;;;4960988;28;20092;-70
2023/10/12 01:25:48;;;;;;;;;;;13.90;99.90;;;;;;4964293;28;20537;-70
2023/10/12 01:28:15;;;;;;;;;;;13.90;99.90;;;;;;4961955;28;20381;-71
2023/10/12 01:30:43;;;;;;;;;;;13.90;99.90;;;;;;4964141;28;19967;-71
2023/10/12 01:33:09;;;;;;;;;;;13.90;99.90;;;;;;4959500;28;19937;-70
2023/10/12 01:35:39;;;;;;;;;;;14.00;99.90;;;;;;4962513;28;19915;-70
2023/10/12 01:38:05;;;;;;;;;;;13.90;99.90;;;;;;4960613;28;19914;-70
2023/10/12 01:40:52;;;;;;;;;;;13.80;99.90;;;;;;4961084;28;20348;-70
2023/10/12 01:43:18;;;;;;;;;;;13.80;99.90;;;;;;4966758;28;19972;-71
2023/10/12 01:45:44;;;;;;;;;;;13.70;99.90;;;;;;4957299;28;20281;-71
2023/10/12 01:48:17;;;;;;;;;;;13.60;99.90;;;;;;4962726;28;19917;-71
2023/10/12 01:50:43;;;;;;;;;;;13.70;99.90;;;;;;4962279;28;19943;-70
2023/10/12 01:55:48;;;;;;;;;;;13.70;99.90;;;;;;4962896;28;19929;-70
2023/10/12 01:58:17;;;;;;;;;;;13.60;99.90;;;;;;4957745;28;19975;-71
2023/10/12 02:00:51;;;;;;;;;;;13.60;99.90;;;;;;4962595;28;19914;-71
2023/10/12 02:06:00;;;;;;;;;;;13.60;99.90;;;;;;4959235;28;19929;-71
2023/10/12 02:08:39;;;;;;;;;;;13.60;99.90;;;;;;4959256;28;19910;-70
2023/10/12 02:11:26;;;;;;;;;;;13.60;99.90;;;;;;4955859;28;19997;-70
2023/10/12 02:13:54;;;;;;;;;;;13.60;99.90;;;;;;4961947;28;19914;-71
2023/10/12 02:16:37;;;;;;;;;;;13.60;99.90;;;;;;4962897;28;19918;-70
2023/10/12 02:19:04;;;;;;;;;;;13.60;99.90;;;;;;4963212;28;19918;-70
2023/10/12 02:21:33;;;;;;;;;;;13.60;99.90;;;;;;4958184;28;19965;-71
2023/10/12 02:24:11;;;;;;;;;;;13.60;99.90;;;;;;4960931;28;19914;-70
2023/10/12 02:31:34;;;;;;;;;;;13.60;99.90;;;;;;4963459;28;20453;-70
2023/10/12 02:34:02;;;;;;;;;;;13.50;99.90;;;;;;4959241;28;19949;-71
2023/10/12 02:36:28;;;;;;;;;;;13.50;99.90;;;;;;4959555;28;19910;-71
2023/10/12 02:38:58;;;;;;;;;;;13.50;99.90;;;;;;4961250;28;19910;-71
2023/10/12 02:41:24;;;;;;;;;;;13.50;99.90;;;;;;4962708;28;19918;-71
2023/10/12 02:43:54;;;;;;;;;;;13.40;99.90;;;;;;4968049;28;19918;-71
2023/10/12 02:46:23;;;;;;;;;;;13.30;99.90;;;;;;4965023;28;19926;-70
2023/10/12 02:48:50;;;;;;;;;;;13.20;99.90;;;;;;4962754;28;19914;-71
2023/10/12 02:51:17;;;;;;;;;;;13.10;99.90;;;;;;4966942;28;19917;-70
2023/10/12 02:53:44;;;;;;;;;;;13.10;99.90;;;;;;4965865;28;19917;-70
2023/10/12 02:56:09;;;;;;;;;;;13.10;99.90;;;;;;4965491;28;19937;-70
2023/10/12 02:58:35;;;;;;;;;;;13.10;99.90;;;;;;4968011;28;20346;-71
2023/10/12 03:01:14;;;;;;;;;;;13.10;99.90;;;;;;4964079;28;20423;-70
2023/10/12 03:03:47;;;;;;;;;;;13.10;99.90;;;;;;4967736;28;20378;-70
2023/10/12 03:06:15;;;;;;;;;;;13.10;99.90;;;;;;4966659;28;19917;-70
2023/10/12 03:08:59;;;;;;;;;;;13.20;99.90;;;;;;4966449;28;20005;-70
2023/10/12 03:11:28;;;;;;;;;;;13.20;99.90;;;;;;4966675;28;20357;-71
2023/10/12 03:14:13;;;;;;;;;;;13.20;99.90;;;;;;4965456;28;20440;-71
2023/10/12 03:16:43;;;;;;;;;;;13.20;99.90;;;;;;4964965;28;19914;-71
2023/10/12 03:19:22;;;;;;;;;;;13.20;99.90;;;;;;4968860;28;19961;-70
2023/10/12 03:21:49;;;;;;;;;;;13.20;99.90;;;;;;4964627;28;20296;-70
2023/10/12 03:24:15;;;;;;;;;;;13.20;99.90;;;;;;4965966;28;19979;-71
2023/10/12 03:27:32;;;;;;;;;;;13.20;99.90;;;;;;4966558;28;20632;-71
2023/10/12 03:29:29;;;;;;;;;;;13.20;99.90;;;;;;4954722;28;19953;-70
2023/10/12 03:31:57;;;;;;;;;;;13.30;99.90;;;;;;4963160;28;20045;-71
2023/10/12 03:37:04;;;;;;;;;;;13.30;99.90;;;;;;4958116;28;19918;-70
2023/10/12 03:39:32;;;;;;;;;;;13.30;99.90;;;;;;4965812;28;19916;-72
2023/10/12 03:42:41;;;;;;;;;;;13.20;99.90;;;;;;4964019;28;19918;-71
2023/10/12 03:45:08;;;;;;;;;;;13.20;99.90;;;;;;4957857;28;19918;-71
2023/10/12 03:47:46;;;;;;;;;;;13.20;99.90;;;;;;4962929;28;19921;-71
2023/10/12 03:50:16;;;;;;;;;;;13.10;99.90;;;;;;4966189;28;19969;-71
2023/10/12 03:52:51;;;;;;;;;;;13.10;99.90;;;;;;4961240;28;20377;-72
2023/10/12 03:55:32;;;;;;;;;;;13.10;99.90;;;;;;4965352;28;19966;-71
2023/10/12 03:58:07;;;;;;;;;;;13.10;99.90;;;;;;4964094;28;19914;-71
2023/10/12 04:00:35;;;;;;;;;;;13.10;99.90;;;;;;4960140;28;20848;-71
2023/10/12 04:03:07;;;;;;;;;;;13.10;99.90;;;;;;4964271;28;19914;-71
2023/10/12 04:08:01;;;;;;;;;;;13.10;99.90;;;;;;4965539;28;20338;-71
2023/10/12 04:16:09;;;;;;;;;;;13.00;99.90;;;;;;4960524;28;19914;-71
2023/10/12 04:18:41;;;;;;;;;;;13.00;99.90;;;;;;4962785;28;19914;-70
2023/10/12 04:21:07;;;;;;;;;;;13.00;99.90;;;;;;4966138;28;19968;-71
2023/10/12 04:29:00;;;;;;;;;;;12.90;99.90;;;;;;4963860;28;19918;-70
2023/10/12 04:36:44;;;;;;;;;;;12.80;99.90;;;;;;4963478;28;19917;-71
2023/10/12 04:39:25;;;;;;;;;;;12.80;99.90;;;;;;4966683;28;19997;-71
2023/10/12 04:46:49;;;;;;;;;;;12.80;99.90;;;;;;4964447;28;19918;-71
2023/10/12 04:52:01;;;;;;;;;;;12.90;99.90;;;;;;4968581;28;19914;-71
2023/10/12 04:54:28;;;;;;;;;;;12.90;99.90;;;;;;4964373;28;20374;-71
2023/10/12 04:56:57;;;;;;;;;;;13.00;99.90;;;;;;4958858;28;20090;-71
2023/10/12 04:59:42;;;;;;;;;;;13.00;99.90;;;;;;4962599;28;19914;-70
2023/10/12 05:04:49;;;;;;;;;;;13.00;99.90;;;;;;4964196;28;20020;-70
2023/10/12 05:09:49;;;;;;;;;;;13.10;99.90;;;;;;4959806;28;19914;-70
2023/10/12 05:12:15;;;;;;;;;;;13.10;99.90;;;;;;4967124;28;19914;-72
2023/10/12 05:14:40;;;;;;;;;;;13.00;99.90;;;;;;4965126;28;20396;-72
2023/10/12 05:17:09;;;;;;;;;;;13.00;99.90;;;;;;4965296;28;19910;-72
2023/10/12 05:19:35;;;;;;;;;;;13.00;99.90;;;;;;4964680;28;20696;-71
2023/10/12 05:22:00;;;;;;;;;;;13.10;99.90;;;;;;4963169;28;19926;-73
2023/10/12 05:24:26;;;;;;;;;;;13.10;99.90;;;;;;4963183;28;19949;-72
2023/10/12 05:27:06;;;;;;;;;;;13.30;99.90;;;;;;4961877;28;19918;-72
2023/10/12 05:29:38;;;;;;;;;;;13.40;99.90;;;;;;4961398;28;20540;-72
2023/10/12 05:32:13;;;;;;;;;;;13.70;99.90;;;;;;4960084;28;20293;-73
2023/10/12 05:37:09;;;;;;;;;;;14.20;99.90;;;;;;4965937;28;20357;-73
2023/10/12 05:39:46;;;;;;;;;;;14.40;99.90;;;;;;4947657;28;19950;-72
2023/10/12 05:42:15;;;;;;;;;;;14.50;99.90;;;;;;4966371;28;19924;-73
2023/10/12 05:44:42;;;;;;;;;;;14.60;99.90;;;;;;4965829;28;19921;-72
2023/10/12 05:47:11;;;;;;;;;;;14.90;99.90;;;;;;4960500;28;20425;-73
2023/10/12 05:49:37;;;;;;;;;;;15.10;99.90;;;;;;4966012;28;19926;-72
2023/10/12 05:52:05;;;;;;;;;;;15.70;99.90;;;;;;4958301;28;19914;-73
2023/10/12 05:54:34;;;;;;;;;;;16.20;99.90;;;;;;4962895;28;20422;-74
2023/10/12 05:57:25;;;;;;;;;;;16.70;99.90;;;;;;4962821;28;20270;-73
2023/10/12 05:59:46;;;;;;;;;;;16.80;99.90;;;;;;4962556;28;20018;-63
2023/10/12 06:02:13;;;;;;;;;;;16.80;99.90;;;;;;4961071;28;19984;-63
2023/10/12 06:04:41;;;;;;;;;;;16.90;99.90;;;;;;4962885;28;20389;-64
2023/10/12 06:07:07;;;;;;;;;;;17.00;99.90;;;;;;4962271;28;19918;-63
2023/10/12 06:09:35;;;;;;;;;;;17.20;99.90;;;;;;4964538;28;19921;-64
2023/10/12 06:12:07;;;;;;;;;;;17.40;99.90;;;;;;4958846;28;19910;-63
2023/10/12 06:14:37;;;;;;;;;;;17.40;99.90;;;;;;4961817;28;20353;-63
2023/10/12 06:17:07;;;;;;;;;;;17.30;99.90;;;;;;4963228;28;19922;-64
2023/10/12 06:19:36;;;;;;;;;;;17.60;99.90;;;;;;4957477;28;19921;-64
2023/10/12 06:22:19;;;;;;;;;;;18.30;99.90;;;;;;4963273;28;19914;-63
2023/10/12 06:24:52;;;;;;;;;;;18.70;99.90;;;;;;4960624;28;19914;-65
2023/10/12 06:29:47;;;;;;;;;;;19.40;99.90;;;;;;4961314;28;19980;-65
2023/10/12 06:45:51;;;;;;;;;;;20.80;99.90;;;;;;4936810;28;19918;-64
2023/10/12 06:48:44;;;;;;;;;;;20.80;99.90;;;;;;4957272;28;20372;-64
2023/10/12 06:51:15;;;;;;;;;;;20.60;99.90;;;;;;4961993;28;20289;-64
2023/10/12 06:53:44;;;;;;;;;;;20.80;99.90;;;;;;4962473;28;19953;-65
2023/10/12 06:58:45;;;;;;;;;;;22.60;99.90;;;;;;4961826;28;19910;-64
2023/10/12 07:04:06;;;;;;;;;;;23.80;99.90;;;;;;4945479;28;19918;-64
2023/10/12 07:06:31;;;;;;;;;;;23.20;99.90;;;;;;4957984;28;19925;-64
2023/10/12 07:08:57;;;;;;;;;;;23.00;99.90;;;;;;4959747;28;19914;-64
2023/10/12 07:11:22;;;;;;;;;;;22.80;99.90;;;;;;4961135;28;19914;-64
2023/10/12 07:13:49;;;;;;;;;;;22.70;99.90;;;;;;4963440;28;20005;-64
2023/10/12 07:16:15;;;;;;;;;;;22.80;99.90;;;;;;4956086;28;19910;-65
2023/10/12 07:18:44;;;;;;;;;;;23.60;99.90;;;;;;4965833;28;19918;-65
2023/10/12 07:21:22;;;;;;;;;;;25.20;99.00;;;;;;4959662;28;19914;-64
2023/10/12 07:23:56;;;;;;;;;;;25.90;97.00;;;;;;4962595;28;20536;-64
2023/10/12 07:26:23;;;;;;;;;;;26.80;96.00;;;;;;4963348;28;20109;-65
2023/10/12 07:28:55;;;;;;;;;;;27.40;94.20;;;;;;4963870;28;19909;-65
2023/10/12 07:31:38;;;;;;;;;;;28.00;92.90;;;;;;4962417;28;20064;-66
2023/10/12 07:34:05;;;;;;;;;;;29.00;91.60;;;;;;4963327;28;20084;-65
2023/10/12 07:36:44;;;;;;;;;;;29.60;89.00;;;;;;4960222;28;20012;-65
2023/10/12 07:39:20;;;;;;;;;;;29.40;88.30;;;;;;4963605;28;20258;-65
2023/10/12 07:42:02;;;;;;;;;;;30.00;87.20;;;;;;4965729;28;19961;-66
2023/10/12 07:44:28;;;;;;;;;;;29.60;86.10;;;;;;4959478;28;19914;-65
2023/10/12 07:46:57;;;;;;;;;;;30.10;84.60;;;;;;4959502;28;19949;-65
2023/10/12 07:49:38;;;;;;;;;;;30.20;83.80;;;;;;4964326;28;20572;-64
2023/10/12 07:54:48;;;;;;;;;;;27.40;86.70;;;;;;4965126;28;19945;-65
2023/10/12 07:57:13;;;;;;;;;;;27.00;88.40;;;;;;4966547;28;19914;-65
2023/10/12 07:59:48;;;;;;;;;;;26.50;90.40;;;;;;4966347;28;20018;-65
2023/10/12 08:02:15;;;;;;;;;;;26.10;90.20;;;;;;4964320;28;20544;-68
2023/10/12 08:04:57;;;;;;;;;;;26.10;90.80;;;;;;4962768;28;19929;-71
2023/10/12 08:07:26;;;;;;;;;;;27.00;89.50;;;;;;4961630;28;20384;-70
2023/10/12 08:09:55;;;;;;;;;;;27.10;89.70;;;;;;4964869;28;19993;-70
2023/10/12 08:12:26;;;;;;;;;;;27.80;88.10;;;;;;4967652;28;19925;-70
2023/10/12 08:15:07;;;;;;;;;;;28.60;86.60;;;;;;4959115;28;19917;-71
2023/10/12 08:17:35;;;;;;;;;;;28.40;85.20;;;;;;4961947;28;19914;-71
2023/10/12 08:22:46;;;;;;;;;;;29.30;84.40;;;;;;4962377;28;19917;-70
2023/10/12 08:25:13;;;;;;;;;;;30.40;82.40;;;;;;4960192;28;19917;-71
2023/10/12 08:28:06;;;;;;;;;;;30.50;79.80;;;;;;4964270;28;19914;-70
2023/10/12 08:30:48;;;;;;;;;;;32.00;77.20;;;;;;4965795;28;19910;-71
2023/10/12 08:33:14;;;;;;;;;;;34.20;69.70;;;;;;4957300;28;19965;-71
2023/10/12 08:36:22;;;;;;;;;;;35.90;65.20;;;;;;4961884;28;20066;-71
2023/10/12 08:38:33;;;;;;;;;;;37.00;62.00;;;;;;4965083;28;19917;-71
2023/10/12 08:43:52;;;;;;;;;;;39.20;57.10;;;;;;4965680;28;19988;-71
2023/10/12 08:52:04;;;;;;;;;;;38.70;55.20;;;;;;4963168;28;19933;-71
2023/10/12 08:54:33;;;;;;;;;;;39.10;54.30;;;;;;4956780;28;19917;-71
2023/10/12 08:57:01;;;;;;;;;;;39.70;54.30;;;;;;4961930;28;19914;-71
2023/10/12 08:59:29;;;;;;;;;;;39.30;54.50;;;;;;4958545;28;19921;-71
2023/10/12 09:02:03;;;;;;;;;;;39.50;53.90;;;;;;4961314;28;19914;-70
2023/10/12 09:04:29;;;;;;;;;;;40.60;52.60;;;;;;4956712;28;19910;-70
2023/10/12 09:06:56;;;;;;;;;;;41.60;51.80;;;;;;4961627;28;19914;-71
2023/10/12 09:12:11;;;;;;;;;;;43.20;50.10;;;;;;4965359;28;19921;-71
2023/10/12 09:14:43;;;;;;;;;;;42.00;48.90;;;;;;4959258;28;19985;-71
2023/10/12 09:17:13;;;;;;;;;;;42.30;51.10;;;;;;4964367;28;19918;-70
2023/10/12 09:19:39;;;;;;;;;;;43.00;48.80;;;;;;4964027;28;19917;-71
2023/10/12 09:22:05;;;;;;;;;;;42.40;48.10;;;;;;4961575;28;20378;-70
2023/10/12 09:24:35;;;;;;;;;;;42.10;48.60;;;;;;4963648;28;19914;-70
2023/10/12 09:27:11;;;;;;;;;;;42.90;49.00;;;;;;4962755;28;19922;-71
2023/10/12 09:29:57;;;;;;;;;;;43.70;47.90;;;;;;4943723;28;19969;-71
2023/10/12 09:32:24;;;;;;;;;;;44.20;47.00;;;;;;4961824;28;20433;-71
2023/10/12 09:35:10;;;;;;;;;;;44.10;46.30;;;;;;4963073;28;19922;-71
2023/10/12 09:37:51;;;;;;;;;;;44.10;46.60;;;;;;4960436;28;19966;-71
2023/10/12 09:40:35;;;;;;;;;;;43.70;46.30;;;;;;4968104;28;19914;-71
2023/10/12 09:43:06;;;;;;;;;;;42.90;46.70;;;;;;4964813;28;20487;-70
2023/10/12 09:45:34;;;;;;;;;;;42.80;46.80;;;;;;4956130;28;19926;-71
2023/10/12 09:48:05;;;;;;;;;;;42.90;47.10;;;;;;4964804;28;20262;-71
2023/10/12 09:50:33;;;;;;;;;;;42.90;46.90;;;;;;4960896;28;19910;-70
2023/10/12 09:53:12;;;;;;;;;;;43.00;47.30;;;;;;4958682;28;19910;-70
2023/10/12 09:55:39;;;;;;;;;;;43.60;46.90;;;;;;4962396;28;20392;-71
2023/10/12 09:58:22;;;;;;;;;;;43.70;46.50;;;;;;4958886;28;19980;-71
2023/10/12 10:01:07;;;;;;;;;;;43.40;46.60;;;;;;4963664;28;19922;-70
2023/10/12 10:03:42;;;;;;;;;;;43.70;46.20;;;;;;4955665;28;19914;-71
2023/10/12 10:06:11;;;;;;;;;;;43.40;46.50;;;;;;4945718;28;19918;-71
2023/10/12 10:08:47;;;;;;;;;;;44.00;45.40;;;;;;4962946;28;19921;-71
2023/10/12 10:11:12;;;;;;;;;;;43.40;45.90;;;;;;4961194;28;19990;-69
2023/10/12 10:13:39;;;;;;;;;;;43.70;45.50;;;;;;4965725;28;19926;-70
2023/10/12 10:16:09;;;;;;;;;;;43.10;45.20;;;;;;4963365;28;20032;-70
2023/10/12 10:19:13;;;;;;;;;;;43.00;45.10;;;;;;4960133;28;20572;-70
2023/10/12 10:21:49;;;;;;;;;;;43.80;44.90;;;;;;4961425;28;19920;-72
2023/10/12 10:24:23;;;;;;;;;;;44.60;44.50;;;;;;4966750;28;19913;-70
2023/10/12 10:26:56;;;;;;;;;;;44.60;44.40;;;;;;4962727;28;19996;-71
2023/10/12 10:29:38;;;;;;;;;;;44.60;44.10;;;;;;4961812;28;19914;-70
2023/10/12 10:32:04;;;;;;;;;;;44.80;43.80;;;;;;4960581;28;20351;-70
2023/10/12 10:34:34;;;;;;;;;;;44.60;44.30;;;;;;4963726;28;19914;-70
2023/10/12 10:37:00;;;;;;;;;;;44.90;43.40;;;;;;4958090;28;19914;-70
2023/10/12 10:39:28;;;;;;;;;;;44.80;43.70;;;;;;4941631;28;19914;-70
2023/10/12 10:41:56;;;;;;;;;;;45.10;43.30;;;;;;4964333;28;19920;-70
2023/10/12 10:44:22;;;;;;;;;;;44.80;43.30;;;;;;4961624;28;19918;-70
2023/10/12 10:46:54;;;;;;;;;;;44.40;44.10;;;;;;4955301;28;20004;-70
2023/10/12 10:49:20;;;;;;;;;;;43.00;43.90;;;;;;4959952;28;20497;-71
2023/10/12 10:52:38;;;;;;;;;;;40.10;45.20;;;;;;4958274;28;19947;-70
2023/10/12 10:54:39;;;;;;;;;;;37.70;46.20;;;;;;4959620;28;19910;-70
2023/10/12 10:57:31;;;;;;;;;;;35.70;47.40;;;;;;4956840;28;20389;-70
2023/10/12 10:59:51;;;;;;;;;;;34.50;48.60;;;;;;4954190;28;20302;-70
2023/10/12 11:02:20;;;;;;;;;;;33.20;49.30;;;;;;4966353;28;19910;-69
2023/10/12 11:04:46;;;;;;;;;;;32.30;50.50;;;;;;4966660;28;20365;-68
2023/10/12 11:07:17;;;;;;;;;;;31.50;51.70;;;;;;4967286;28;19929;-69
2023/10/12 11:12:25;;;;;;;;;;;30.90;52.70;;;;;;4963695;28;19914;-69
2023/10/12 11:15:01;;;;;;;;;;;30.70;52.60;;;;;;4961292;28;19972;-69
2023/10/12 11:17:30;;;;;;;;;;;30.50;53.00;;;;;;4961618;28;19928;-69
2023/10/12 11:19:57;;;;;;;;;;;30.40;53.70;;;;;;4959709;28;20021;-70
2023/10/12 11:22:23;;;;;;;;;;;30.30;53.70;;;;;;4966086;28;19914;-69
2023/10/12 11:24:49;;;;;;;;;;;30.20;53.60;;;;;;4963207;28;19964;-70
2023/10/12 11:27:31;;;;;;;;;;;30.00;53.60;;;;;;4968058;28;19922;-70
2023/10/12 11:30:00;;;;;;;;;;;29.60;53.90;;;;;;4963942;28;20012;-71
2023/10/12 11:32:28;;;;;;;;;;;29.50;53.90;;;;;;4957194;28;20389;-72
2023/10/12 11:34:59;;;;;;;;;;;29.40;54.40;;;;;;4964802;28;19993;-72
2023/10/12 11:37:27;;;;;;;;;;;29.40;54.50;;;;;;4957789;28;20321;-72
2023/10/12 11:39:54;;;;;;;;;;;29.40;55.70;;;;;;4964582;28;19916;-71
2023/10/12 11:42:20;;;;;;;;;;;29.40;55.30;;;;;;4963707;28;19918;-72
2023/10/12 11:44:46;;;;;;;;;;;29.30;55.20;;;;;;4963771;28;19930;-72
2023/10/12 11:47:23;;;;;;;;;;;29.30;55.30;;;;;;4963108;28;19984;-72
2023/10/12 11:49:49;;;;;;;;;;;29.30;55.70;;;;;;4961463;28;20757;-70
2023/10/12 11:52:22;;;;;;;;;;;29.20;55.40;;;;;;4963903;28;19929;-70
2023/10/12 11:54:48;;;;;;;;;;;29.00;55.20;;;;;;4944377;28;19980;-69
2023/10/12 11:57:14;;;;;;;;;;;28.90;55.40;;;;;;4964435;28;20341;-71
2023/10/12 11:59:39;;;;;;;;;;;28.70;55.60;;;;;;4964385;28;20365;-72
2023/10/12 12:02:09;;;;;;;;;;;28.50;56.10;;;;;;4963231;28;19914;-70
2023/10/12 12:04:41;;;;;;;;;;;28.40;56.30;;;;;;4969771;28;20353;-71
2023/10/12 12:07:10;;;;;;;;;;;28.30;56.30;;;;;;4960619;28;19925;-72
2023/10/12 12:09:48;;;;;;;;;;;28.20;56.10;;;;;;4967306;28;19910;-72
2023/10/12 12:12:16;;;;;;;;;;;28.20;56.90;;;;;;4963148;28;19909;-72
2023/10/12 12:14:47;;;;;;;;;;;28.10;56.50;;;;;;4967733;28;20663;-72
2023/10/12 12:17:15;;;;;;;;;;;28.00;57.00;;;;;;4965176;28;20346;-71
2023/10/12 12:19:41;;;;;;;;;;;28.00;56.90;;;;;;4963390;28;20428;-73
2023/10/12 12:22:10;;;;;;;;;;;28.00;57.10;;;;;;4962494;28;19918;-72
2023/10/12 12:24:44;;;;;;;;;;;27.90;57.30;;;;;;4965634;28;19910;-73
2023/10/12 12:27:37;;;;;;;;;;;27.90;57.40;;;;;;4966083;28;19975;-72
2023/10/12 12:29:57;;;;;;;;;;;27.80;57.00;;;;;;4962449;28;20678;-72
2023/10/12 12:32:26;;;;;;;;;;;27.70;57.90;;;;;;4959968;28;19910;-72
2023/10/12 12:34:54;;;;;;;;;;;27.60;57.60;;;;;;4962271;28;19964;-69
2023/10/12 12:37:20;;;;;;;;;;;27.60;58.30;;;;;;4964656;28;20626;-72
2023/10/12 12:40:01;;;;;;;;;;;27.40;57.20;;;;;;4963313;28;19956;-71
2023/10/12 12:42:27;;;;;;;;;;;27.30;57.90;;;;;;4966593;28;20773;-75
2023/10/12 12:44:52;;;;;;;;;;;27.40;58.10;;;;;;4957483;28;20033;-71
2023/10/12 12:47:23;;;;;;;;;;;27.40;58.50;;;;;;4968335;28;19913;-71
2023/10/12 12:49:48;;;;;;;;;;;27.50;58.30;;;;;;4965024;28;20261;-71
2023/10/12 12:52:17;;;;;;;;;;;27.60;57.90;;;;;;4963097;28;19910;-72
2023/10/12 12:54:44;;;;;;;;;;;27.60;58.20;;;;;;4964048;28;19910;-78
2023/10/12 12:57:13;;;;;;;;;;;27.70;58.40;;;;;;4961926;28;19976;-71
2023/10/12 12:59:38;;;;;;;;;;;27.70;58.10;;;;;;4962544;28;19914;-77
2023/10/12 13:02:07;;;;;;;;;;;27.70;57.70;;;;;;4964639;28;20354;-76
2023/10/12 13:04:35;;;;;;;;;;;27.70;57.50;;;;;;4965227;28;20307;-77
2023/10/12 13:07:08;;;;;;;;;;;27.70;57.60;;;;;;4960439;28;19970;-78
2023/10/12 13:09:36;;;;;;;;;;;27.70;58.10;;;;;;4967222;28;19998;-76
2023/10/12 13:12:05;;;;;;;;;;;27.50;57.90;;;;;;4965717;28;19972;-76
2023/10/12 13:14:31;;;;;;;;;;;27.60;57.80;;;;;;4965656;28;20013;-76
2023/10/12 13:16:57;;;;;;;;;;;27.60;57.90;;;;;;4962772;28;19915;-76
2023/10/12 13:19:24;;;;;;;;;;;27.40;57.40;;;;;;4961311;28;20356;-76
2023/10/12 13:21:49;;;;;;;;;;;27.30;57.60;;;;;;4964114;28;19918;-76
2023/10/12 13:24:15;;;;;;;;;;;27.20;57.80;;;;;;4966387;28;19984;-76
2023/10/12 13:26:43;;;;;;;;;;;27.00;57.90;;;;;;4966469;28;20490;-76
2023/10/12 13:29:10;;;;;;;;;;;26.80;58.30;;;;;;4960862;28;20368;-76
2023/10/12 13:31:36;;;;;;;;;;;26.60;58.90;;;;;;4962805;28;19922;-76
2023/10/12 13:34:05;;;;;;;;;;;26.60;58.90;;;;;;4964652;28;19917;-76
2023/10/12 13:36:34;;;;;;;;;;;26.50;59.20;;;;;;4965418;28;19965;-76
2023/10/12 13:38:59;;;;;;;;;;;26.50;59.70;;;;;;4963721;28;19937;-76
2023/10/12 13:41:25;;;;;;;;;;;26.30;59.80;;;;;;4958665;28;19915;-76
2023/10/12 13:43:51;;;;;;;;;;;26.30;59.80;;;;;;4965451;28;19938;-76
2023/10/12 13:46:16;;;;;;;;;;;26.30;60.00;;;;;;4962972;28;20041;-76
2023/10/12 13:48:42;;;;;;;;;;;26.30;59.90;;;;;;4963220;28;19925;-76
2023/10/12 13:51:08;;;;;;;;;;;26.40;59.90;;;;;;4963747;28;20417;-76
2023/10/12 13:53:36;;;;;;;;;;;26.40;60.00;;;;;;4962179;28;19914;-76
2023/10/12 13:56:04;;;;;;;;;;;26.40;59.80;;;;;;4964993;28;19929;-76
2023/10/12 13:58:32;;;;;;;;;;;26.50;60.20;;;;;;4962554;28;19915;-76
2023/10/12 14:01:02;;;;;;;;;;;26.50;59.70;;;;;;4961945;28;19976;-76
2023/10/12 14:03:28;;;;;;;;;;;26.40;60.00;;;;;;4958929;28;19961;-76
2023/10/12 14:05:56;;;;;;;;;;;26.30;60.40;;;;;;4966135;28;20392;-76
2023/10/12 14:08:23;;;;;;;;;;;26.20;60.30;;;;;;4962269;28;19921;-76
2023/10/12 14:10:51;;;;;;;;;;;26.20;60.50;;;;;;4965599;28;19941;-76
2023/10/12 14:13:17;;;;;;;;;;;26.10;61.10;;;;;;4969940;28;19953;-76
2023/10/12 14:15:46;;;;;;;;;;;26.10;60.70;;;;;;4967461;28;20424;-76
2023/10/12 14:18:18;;;;;;;;;;;26.00;60.90;;;;;;4963517;28;19925;-76
2023/10/12 14:20:44;;;;;;;;;;;25.90;61.10;;;;;;4966671;28;19994;-75
2023/10/12 14:23:10;;;;;;;;;;;25.80;61.10;;;;;;4965093;28;19918;-76
2023/10/12 14:25:37;;;;;;;;;;;25.80;61.10;;;;;;4946676;28;19972;-76
2023/10/12 14:28:05;;;;;;;;;;;25.70;61.80;;;;;;4964288;28;19968;-76
2023/10/12 14:30:36;;;;;;;;;;;25.60;61.50;;;;;;4963326;28;19964;-75
2023/10/12 14:33:03;;;;;;;;;;;25.50;61.70;;;;;;4959373;28;19921;-76
2023/10/12 14:35:29;;;;;;;;;;;25.40;62.10;;;;;;4965372;28;19949;-76
2023/10/12 14:37:56;;;;;;;;;;;25.40;62.70;;;;;;4964804;28;19946;-76
2023/10/12 14:40:29;;;;;;;;;;;25.30;63.10;;;;;;4966628;28;20385;-75
2023/10/12 14:42:55;;;;;;;;;;;25.30;62.90;;;;;;4969264;28;20495;-76
2023/10/12 14:45:24;;;;;;;;;;;25.20;63.10;;;;;;4969663;28;20676;-76
2023/10/12 14:47:50;;;;;;;;;;;25.10;63.50;;;;;;4968305;28;20911;-76
2023/10/12 14:50:17;;;;;;;;;;;25.10;63.80;;;;;;4967081;28;20451;-76
2023/10/12 14:52:43;;;;;;;;;;;25.10;63.60;;;;;;4969119;28;19910;-76
2023/10/12 14:55:13;;;;;;;;;;;25.00;64.10;;;;;;4962819;28;19972;-76
2023/10/12 14:57:39;;;;;;;;;;;25.00;63.60;;;;;;4968373;28;20036;-76
2023/10/12 15:00:22;;;;;;;;;;;25.00;63.90;;;;;;4966333;28;19989;-76
2023/10/12 15:02:51;;;;;;;;;;;25.00;64.10;;;;;;4966197;28;19918;-75
2023/10/12 15:05:17;;;;;;;;;;;24.90;64.40;;;;;;4967130;28;20281;-76
2023/10/12 15:07:42;;;;;;;;;;;24.90;65.20;;;;;;4967127;28;19928;-76
2023/10/12 15:10:08;;;;;;;;;;;24.80;65.00;;;;;;4963422;28;19926;-76
2023/10/12 15:12:34;;;;;;;;;;;24.70;64.90;;;;;;4967931;28;19957;-76
2023/10/12 15:15:01;;;;;;;;;;;24.70;65.30;;;;;;4963073;28;20746;-76
2023/10/12 15:17:29;;;;;;;;;;;24.60;65.70;;;;;;4963896;28;20371;-75
2023/10/12 15:19:55;;;;;;;;;;;24.50;66.30;;;;;;4965060;28;19914;-76
2023/10/12 15:22:21;;;;;;;;;;;24.40;67.50;;;;;;4970093;28;19965;-76
2023/10/12 15:24:46;;;;;;;;;;;24.30;67.10;;;;;;4969706;28;19949;-75
2023/10/12 15:27:12;;;;;;;;;;;24.20;67.40;;;;;;4962745;28;20258;-76
2023/10/12 15:29:37;;;;;;;;;;;24.10;68.30;;;;;;4966067;28;20335;-76
2023/10/12 15:32:03;;;;;;;;;;;24.10;68.40;;;;;;4967096;28;20576;-76
2023/10/12 15:34:33;;;;;;;;;;;24.00;68.50;;;;;;4966485;28;19965;-76
2023/10/12 15:37:00;;;;;;;;;;;23.90;68.30;;;;;;4964760;28;19914;-75
2023/10/12 15:39:29;;;;;;;;;;;23.90;68.50;;;;;;4963284;28;19914;-76
2023/10/12 15:41:55;;;;;;;;;;;23.80;69.30;;;;;;4962180;28;19921;-62
2023/10/12 15:44:22;;;;;;;;;;;23.70;69.70;;;;;;4966405;28;20370;-65
2023/10/12 15:46:48;;;;;;;;;;;23.70;70.40;;;;;;4950865;28;20161;-63
2023/10/12 15:49:14;;;;;;;;;;;23.60;70.70;;;;;;4961670;28;20003;-63
2023/10/12 15:51:39;;;;;;;;;;;23.50;71.60;;;;;;4966106;28;19914;-64
2023/10/12 15:54:05;;;;;;;;;;;23.40;72.70;;;;;;4961174;28;20391;-63
2023/10/12 15:56:34;;;;;;;;;;;23.30;72.10;;;;;;4963880;28;19910;-64
2023/10/12 15:59:01;;;;;;;;;;;23.20;72.90;;;;;;4964629;28;19918;-64
2023/10/12 16:01:27;;;;;;;;;;;23.10;73.00;;;;;;4961535;28;20008;-63
2023/10/12 16:03:53;;;;;;;;;;;23.10;73.70;;;;;;4964155;28;20225;-64
2023/10/12 16:06:20;;;;;;;;;;;23.00;73.80;;;;;;4965542;28;19953;-64